CST,Max TemperatureF,Mean TemperatureF,Min TemperatureF,Max Dew PointF,MeanDew PointF,Min DewpointF,Max Humidity, Mean Humidity, Min Humidity, Max Sea Level PressureIn, Mean Sea Level PressureIn, Min Sea Level PressureIn, Max VisibilityMiles, Mean VisibilityMiles, Min VisibilityMiles, Max Wind SpeedMPH, Mean Wind SpeedMPH, Max Gust SpeedMPH,PrecipitationIn, CloudCover, Events, WindDirDegrees
2013-12-1,79,74,68,74,70,67,94,85,67,30.11,30.04,29.98,12,8,6,13,10,,0.01,6,Rain,310
2013-12-2,79,74,68,73,72,70,100,91,73,30.00,29.93,29.87,12,7,5,7,5,,0.08,5,Rain,300
2013-12-3,84,76,69,77,71,32,100,86,69,29.93,29.86,29.79,16,7,0,8,3,,0.00,3,Fog,121
2013-12-4,89,83,77,78,76,72,89,76,49,29.92,29.86,29.80,16,8,3,12,6,,0.00,1,,139
2013-12-5,86,82,77,77,74,73,94,75,59,29.99,29.93,29.89,14,9,6,9,6,,0.00,2,,113
2013-12-6,87,82,78,77,76,74,89,78,63,30.01,29.94,29.90,14,8,6,12,6,,0.00,3,,100
2013-12-7,86,80,75,77,75,75,100,84,70,30.06,30.00,29.97,12,6,0,16,6,,0.51,4,Rain,67
2013-12-8,82,76,71,76,74,70,100,89,79,30.06,30.01,29.96,12,8,6,7,3,,0.12,4,Rain,52
2013-12-9,84,78,71,75,73,72,100,85,62,30.05,29.99,29.92,14,6,0,8,2,,0.00,4,Fog-Rain,50
2013-12-10,84,77,70,75,73,70,100,85,67,30.09,30.03,29.98,12,7,2,10,5,,0.28,4,Rain,34
2013-12-11,76,74,71,75,73,71,100,98,91,30.08,30.02,29.96,12,5,1,10,7,,1.54,6,Rain,336
2013-12-12,75,74,72,75,73,72,100,97,94,30.13,30.06,30.00,12,6,2,12,3,23,1.50,7,Rain,45
2013-12-13,78,75,72,75,74,72,100,95,89,30.04,29.97,29.89,12,6,1,9,4,,0.35,5,Rain,339
2013-12-14,83,76,70,76,74,71,100,90,68,29.97,29.92,29.86,14,6,0,7,4,,0.01,5,Fog-Rain,341
2013-12-15,82,78,75,77,76,74,100,92,83,30.03,29.96,29.91,12,7,1,9,2,,0.98,6,Rain-Thunderstorm,304
2013-12-16,78,74,71,75,73,71,100,95,89,30.10,30.04,29.99,12,7,2,14,9,,0.71,6,Rain-Thunderstorm,8
2013-12-17,78,74,70,73,71,69,97,92,79,30.14,30.08,30.02,12,8,6,12,8,,0.04,6,Rain,307
2013-12-18,81,76,71,73,72,70,100,85,67,30.15,30.07,30.01,12,8,2,15,9,,0.63,5,Rain,19
2013-12-19,80,75,70,75,73,70,100,94,79,30.08,30.02,29.94,12,5,1,7,5,,0.63,6,Rain,320
2013-12-20,84,76,69,75,74,70,100,88,69,29.99,29.95,29.89,12,5,0,12,2,,0.39,5,Fog-Rain,95
2013-12-21,86,80,75,76,74,72,94,78,58,29.96,29.90,29.85,14,8,6,9,6,,0.00,4,,116
2013-12-22,86,82,78,75,75,73,89,76,62,29.98,29.91,29.86,14,8,6,9,7,,0.00,2,,116
2013-12-23,87,82,78,75,74,72,89,76,65,30.09,30.02,29.95,15,8,3,10,8,,0.00,2,Rain,89
2013-12-24,83,77,71,75,73,70,94,84,68,30.14,30.07,30.00,12,6,1,15,5,34,0.39,5,Rain,59
2013-12-25,82,76,71,72,71,66,95,81,58,30.10,30.03,29.95,14,8,6,12,6,,0.02,4,Rain,351
2013-12-26,80,75,70,73,72,69,100,89,65,30.07,30.01,29.95,12,6,1,9,6,,1.06,5,Rain,353
2013-12-27,78,73,68,73,71,68,100,92,78,30.07,30.02,29.96,12,6,1,8,5,,0.04,5,Rain,288
2013-12-28,79,75,71,73,71,70,96,86,72,30.06,29.99,29.93,12,8,6,9,6,,0.00,5,,280
2013-12-29,80,76,71,72,72,71,100,86,71,30.04,29.98,29.92,12,8,6,10,4,,0.00,6,,307
2013-12-30,85,78,72,75,74,72,100,85,64,30.04,29.97,29.93,15,8,2,7,4,,0.43,4,Rain,62
2013-12-31,83,78,74,75,75,73,96,88,70,30.09,30.01,29.95,14,6,1,8,2,,0.35,5,Rain,108